OHK1104 VHHH-RCTP
Flight info
| Callsign | OHK1104 |
|---|---|
| Flight time | 1h 10m |
| Altitude | 39000 |
| Route | DALOL1X/07R DALOL V631 ENVAR M750 EXTRA/N0448F290 M750 TONGA TONGA1A |
| Aircraft | A339/H-SADE1E2E3GHIJ3J5M1P2RWXY/LB2D1 |
Departure
| Time | 2026-05-05 12:37 |
|---|---|
| Airport | Hong Kong International Airport (VHHH) |
Arrival
| Time | 2026-05-05 13:47 |
|---|---|
| Airport | Taiwan Taoyuan International Airport (RCTP) |
| Time | Latitude | Longitude | Altitude | Speed | Heading |
|---|---|---|---|---|---|
| 2026-05-05 12:24 | 22.31343 | 113.91832 | 43 ft | 0 kts | 154° |
| 2026-05-05 12:27 | 22.31342 | 113.91832 | 43 ft | 2 kts | 154° |
| 2026-05-05 12:27 | 22.31318 | 113.91844 | 41 ft | 5 kts | 157° |
| 2026-05-05 12:27 | 22.31280 | 113.91858 | 43 ft | 7 kts | 161° |
| 2026-05-05 12:28 | 22.31231 | 113.91876 | 43 ft | 8 kts | 161° |
| 2026-05-05 12:28 | 22.31169 | 113.91899 | 43 ft | 11 kts | 161° |
| 2026-05-05 12:28 | 22.31084 | 113.91931 | 43 ft | 15 kts | 161° |
| 2026-05-05 12:28 | 22.30984 | 113.91968 | 43 ft | 16 kts | 161° |
| 2026-05-05 12:29 | 22.30893 | 113.92003 | 43 ft | 12 kts | 160° |
| 2026-05-05 12:29 | 22.30830 | 113.92027 | 43 ft | 6 kts | 161° |
| 2026-05-05 12:29 | 22.30823 | 113.92029 | 43 ft | 3 kts | 161° |
| 2026-05-05 12:29 | 22.30796 | 113.92045 | 43 ft | 5 kts | 144° |
| 2026-05-05 12:30 | 22.30783 | 113.92084 | 43 ft | 6 kts | 98° |
| 2026-05-05 12:30 | 22.30777 | 113.92126 | 43 ft | 6 kts | 116° |
| 2026-05-05 12:30 | 22.30742 | 113.92154 | 43 ft | 7 kts | 153° |
| 2026-05-05 12:30 | 22.30689 | 113.92163 | 43 ft | 8 kts | 185° |
| 2026-05-05 12:31 | 22.30652 | 113.92121 | 42 ft | 9 kts | 243° |
| 2026-05-05 12:31 | 22.30628 | 113.92049 | 43 ft | 12 kts | 250° |
| 2026-05-05 12:31 | 22.30595 | 113.91948 | 43 ft | 16 kts | 251° |
| 2026-05-05 12:31 | 22.30556 | 113.91826 | 43 ft | 19 kts | 251° |
| 2026-05-05 12:32 | 22.30510 | 113.91685 | 43 ft | 21 kts | 250° |
| 2026-05-05 12:32 | 22.30462 | 113.91532 | 43 ft | 22 kts | 252° |
| 2026-05-05 12:32 | 22.30410 | 113.91370 | 43 ft | 23 kts | 249° |
| 2026-05-05 12:32 | 22.30355 | 113.91206 | 43 ft | 24 kts | 251° |
| 2026-05-05 12:33 | 22.30300 | 113.91036 | 43 ft | 24 kts | 251° |
| 2026-05-05 12:33 | 22.30244 | 113.90862 | 43 ft | 25 kts | 251° |
| 2026-05-05 12:33 | 22.30186 | 113.90684 | 43 ft | 25 kts | 251° |
| 2026-05-05 12:33 | 22.30128 | 113.90502 | 42 ft | 26 kts | 251° |
| 2026-05-05 12:34 | 22.30070 | 113.90322 | 42 ft | 23 kts | 250° |
| 2026-05-05 12:34 | 22.30016 | 113.90159 | 42 ft | 23 kts | 252° |
| 2026-05-05 12:34 | 22.29966 | 113.89992 | 42 ft | 24 kts | 250° |
| 2026-05-05 12:34 | 22.29919 | 113.89854 | 43 ft | 16 kts | 250° |
| 2026-05-05 12:35 | 22.29886 | 113.89756 | 43 ft | 9 kts | 243° |
| 2026-05-05 12:35 | 22.29828 | 113.89737 | 43 ft | 9 kts | 173° |
| 2026-05-05 12:35 | 22.29762 | 113.89760 | 43 ft | 11 kts | 160° |
| 2026-05-05 12:35 | 22.29688 | 113.89788 | 43 ft | 12 kts | 161° |
| 2026-05-05 12:36 | 22.29640 | 113.89827 | 41 ft | 8 kts | 113° |
| 2026-05-05 12:36 | 22.29649 | 113.89884 | 43 ft | 8 kts | 71° |
| 2026-05-05 12:36 | 22.29693 | 113.90021 | 42 ft | 45 kts | 71° |
| 2026-05-05 12:36 | 22.29896 | 113.90655 | 42 ft | 129 kts | 71° |
| 2026-05-05 12:37 | 22.30266 | 113.91774 | 176 ft | 177 kts | 71° |
| 2026-05-05 12:37 | 22.30664 | 113.93007 | 999 ft | 173 kts | 72° |
| 2026-05-05 12:37 | 22.31041 | 113.94247 | 1810 ft | 176 kts | 72° |
| 2026-05-05 12:37 | 22.31447 | 113.95531 | 2463 ft | 189 kts | 73° |
| 2026-05-05 12:38 | 22.31894 | 113.96910 | 3118 ft | 199 kts | 72° |
| 2026-05-05 12:38 | 22.32370 | 113.98365 | 3712 ft | 213 kts | 73° |
| 2026-05-05 12:38 | 22.32853 | 113.99922 | 4270 ft | 225 kts | 73° |
| 2026-05-05 12:38 | 22.33370 | 114.01543 | 4941 ft | 234 kts | 71° |
| 2026-05-05 12:39 | 22.33896 | 114.03242 | 5523 ft | 244 kts | 81° |
| 2026-05-05 12:39 | 22.33746 | 114.05040 | 6221 ft | 240 kts | 114° |
| 2026-05-05 12:39 | 22.32872 | 114.06512 | 7091 ft | 229 kts | 133° |
| 2026-05-05 12:39 | 22.31718 | 114.07693 | 7728 ft | 232 kts | 143° |
| 2026-05-05 12:40 | 22.30253 | 114.08514 | 8019 ft | 244 kts | 167° |
| 2026-05-05 12:40 | 22.28538 | 114.08678 | 8388 ft | 253 kts | 180° |
| 2026-05-05 12:40 | 22.26741 | 114.08726 | 8747 ft | 264 kts | 181° |
| 2026-05-05 12:40 | 22.24837 | 114.08730 | 8946 ft | 283 kts | 182° |
| 2026-05-05 12:41 | 22.22849 | 114.08700 | 9532 ft | 287 kts | 183° |
| 2026-05-05 12:41 | 22.20866 | 114.08666 | 10123 ft | 291 kts | 183° |
| 2026-05-05 12:41 | 22.18777 | 114.08715 | 10323 ft | 311 kts | 174° |
| 2026-05-05 12:41 | 22.16659 | 114.09468 | 10491 ft | 334 kts | 153° |
| 2026-05-05 12:42 | 22.14820 | 114.11098 | 10705 ft | 352 kts | 131° |
| 2026-05-05 12:42 | 22.13525 | 114.13374 | 11191 ft | 359 kts | 118° |
| 2026-05-05 12:42 | 22.12445 | 114.15825 | 11660 ft | 364 kts | 116° |
| 2026-05-05 12:42 | 22.11379 | 114.18315 | 12172 ft | 368 kts | 116° |
| 2026-05-05 12:43 | 22.10270 | 114.20817 | 12651 ft | 372 kts | 117° |
| 2026-05-05 12:43 | 22.09113 | 114.23330 | 13142 ft | 376 kts | 118° |
| 2026-05-05 12:43 | 22.07702 | 114.25714 | 13611 ft | 377 kts | 131° |
| 2026-05-05 12:43 | 22.05871 | 114.27731 | 14060 ft | 377 kts | 143° |
| 2026-05-05 12:44 | 22.03752 | 114.29403 | 14508 ft | 378 kts | 148° |
| 2026-05-05 12:44 | 22.01624 | 114.31039 | 14925 ft | 382 kts | 148° |
| 2026-05-05 12:44 | 21.99461 | 114.32726 | 15377 ft | 385 kts | 147° |
| 2026-05-05 12:44 | 21.97284 | 114.34436 | 15816 ft | 389 kts | 147° |
| 2026-05-05 12:45 | 21.95089 | 114.36165 | 16242 ft | 392 kts | 147° |
| 2026-05-05 12:45 | 21.92876 | 114.37909 | 16667 ft | 395 kts | 148° |
| 2026-05-05 12:45 | 21.90647 | 114.39665 | 17081 ft | 399 kts | 148° |
| 2026-05-05 12:45 | 21.88402 | 114.41433 | 17511 ft | 401 kts | 148° |
| 2026-05-05 12:46 | 21.86228 | 114.43363 | 17874 ft | 410 kts | 137° |
| 2026-05-05 12:46 | 21.84547 | 114.45870 | 18298 ft | 419 kts | 120° |
| 2026-05-05 12:46 | 21.83508 | 114.48825 | 18675 ft | 424 kts | 107° |
| 2026-05-05 12:46 | 21.82746 | 114.51902 | 19040 ft | 427 kts | 106° |
| 2026-05-05 12:47 | 21.81995 | 114.55004 | 19424 ft | 429 kts | 106° |
| 2026-05-05 12:47 | 21.81225 | 114.58118 | 19812 ft | 432 kts | 106° |
| 2026-05-05 12:47 | 21.80435 | 114.61242 | 20201 ft | 434 kts | 107° |
| 2026-05-05 12:47 | 21.79629 | 114.64380 | 20582 ft | 436 kts | 107° |
| 2026-05-05 12:48 | 21.78821 | 114.67498 | 20960 ft | 439 kts | 107° |
| 2026-05-05 12:48 | 21.77997 | 114.70670 | 21357 ft | 441 kts | 107° |
| 2026-05-05 12:48 | 21.77167 | 114.73860 | 21743 ft | 444 kts | 107° |
| 2026-05-05 12:48 | 21.76331 | 114.77070 | 22122 ft | 447 kts | 107° |
| 2026-05-05 12:49 | 21.75490 | 114.80300 | 22512 ft | 450 kts | 107° |
| 2026-05-05 12:49 | 21.74726 | 114.83574 | 22875 ft | 454 kts | 102° |
| 2026-05-05 12:49 | 21.74357 | 114.86961 | 23288 ft | 457 kts | 93° |
| 2026-05-05 12:49 | 21.74348 | 114.90390 | 23637 ft | 460 kts | 90° |
| 2026-05-05 12:50 | 21.74369 | 114.93844 | 23950 ft | 463 kts | 90° |
| 2026-05-05 12:50 | 21.74378 | 114.97321 | 24266 ft | 466 kts | 90° |
| 2026-05-05 12:50 | 21.74379 | 115.00816 | 24587 ft | 469 kts | 90° |
| 2026-05-05 12:50 | 21.74377 | 115.04338 | 24912 ft | 472 kts | 90° |
| 2026-05-05 12:51 | 21.74373 | 115.07875 | 25230 ft | 474 kts | 90° |
| 2026-05-05 12:51 | 21.74368 | 115.11439 | 25554 ft | 477 kts | 90° |
| 2026-05-05 12:51 | 21.74363 | 115.15025 | 25869 ft | 480 kts | 90° |
| 2026-05-05 12:51 | 21.74359 | 115.17412 | 26082 ft | 482 kts | 90° |
| 2026-05-05 12:52 | 21.74350 | 115.22208 | 26502 ft | 486 kts | 90° |
| 2026-05-05 12:52 | 21.74343 | 115.25863 | 26820 ft | 488 kts | 90° |
| 2026-05-05 12:52 | 21.74335 | 115.29533 | 27130 ft | 491 kts | 90° |
| 2026-05-05 12:52 | 21.74326 | 115.33227 | 27436 ft | 494 kts | 89° |
| 2026-05-05 12:53 | 21.74317 | 115.36926 | 27739 ft | 497 kts | 89° |
| 2026-05-05 12:53 | 21.74306 | 115.40602 | 28041 ft | 499 kts | 89° |
| 2026-05-05 12:53 | 21.74295 | 115.44344 | 28356 ft | 502 kts | 89° |
| 2026-05-05 12:53 | 21.74283 | 115.48107 | 28655 ft | 504 kts | 89° |
| 2026-05-05 12:54 | 21.74256 | 115.55691 | 29270 ft | 510 kts | 89° |
| 2026-05-05 12:54 | 21.74242 | 115.59519 | 29561 ft | 512 kts | 89° |
| 2026-05-05 12:54 | 21.74226 | 115.63359 | 29857 ft | 515 kts | 89° |
| 2026-05-05 12:55 | 21.74212 | 115.67218 | 30154 ft | 518 kts | 89° |
| 2026-05-05 12:55 | 21.74196 | 115.71100 | 30445 ft | 520 kts | 89° |
| 2026-05-05 12:55 | 21.74185 | 115.73729 | 30641 ft | 521 kts | 89° |
| 2026-05-05 12:55 | 21.74162 | 115.78912 | 31037 ft | 524 kts | 89° |
| 2026-05-05 12:56 | 21.74144 | 115.82849 | 31334 ft | 526 kts | 89° |
| 2026-05-05 12:56 | 21.74124 | 115.86793 | 31626 ft | 529 kts | 89° |
| 2026-05-05 12:56 | 21.74104 | 115.90757 | 31911 ft | 531 kts | 89° |
| 2026-05-05 12:56 | 21.74082 | 115.94745 | 32191 ft | 533 kts | 89° |
| 2026-05-05 12:57 | 21.74067 | 115.97393 | 32368 ft | 534 kts | 89° |
| 2026-05-05 12:57 | 21.74036 | 116.02698 | 32692 ft | 537 kts | 89° |
| 2026-05-05 12:57 | 21.74011 | 116.06717 | 32893 ft | 539 kts | 90° |
| 2026-05-05 12:57 | 21.73985 | 116.10762 | 33084 ft | 540 kts | 90° |
| 2026-05-05 12:58 | 21.73958 | 116.14809 | 33263 ft | 542 kts | 90° |
| 2026-05-05 12:58 | 21.73930 | 116.18875 | 33418 ft | 543 kts | 90° |
| 2026-05-05 12:58 | 21.73901 | 116.22898 | 33577 ft | 544 kts | 90° |
| 2026-05-05 12:58 | 21.73871 | 116.26960 | 33777 ft | 543 kts | 90° |
| 2026-05-05 12:59 | 21.73840 | 116.31017 | 33980 ft | 543 kts | 90° |
| 2026-05-05 12:59 | 21.73808 | 116.35084 | 34152 ft | 542 kts | 90° |
| 2026-05-05 12:59 | 21.73775 | 116.39138 | 34342 ft | 542 kts | 90° |
| 2026-05-05 13:00 | 21.73707 | 116.47232 | 34705 ft | 540 kts | 90° |
| 2026-05-05 13:00 | 21.73671 | 116.51265 | 34891 ft | 539 kts | 90° |
| 2026-05-05 13:01 | 21.73571 | 116.61985 | 35347 ft | 538 kts | 90° |
| 2026-05-05 13:01 | 21.73532 | 116.66008 | 35530 ft | 537 kts | 90° |
| 2026-05-05 13:01 | 21.73479 | 116.71377 | 35774 ft | 536 kts | 90° |
| 2026-05-05 13:01 | 21.73549 | 116.75383 | 35919 ft | 536 kts | 84° |
| 2026-05-05 13:02 | 21.73849 | 116.78013 | 36042 ft | 534 kts | 79° |
| 2026-05-05 13:02 | 21.74694 | 116.81890 | 36218 ft | 532 kts | 71° |
| 2026-05-05 13:02 | 21.75960 | 116.85615 | 36388 ft | 529 kts | 65° |
| 2026-05-05 13:02 | 21.77322 | 116.89298 | 36546 ft | 530 kts | 66° |
| 2026-05-05 13:03 | 21.78670 | 116.92994 | 36717 ft | 530 kts | 66° |
| 2026-05-05 13:03 | 21.80006 | 116.96682 | 36896 ft | 529 kts | 66° |
| 2026-05-05 13:03 | 21.81338 | 117.00371 | 37072 ft | 529 kts | 66° |
| 2026-05-05 13:03 | 21.82672 | 117.04066 | 37228 ft | 529 kts | 66° |
| 2026-05-05 13:04 | 21.84003 | 117.07756 | 37395 ft | 529 kts | 66° |
| 2026-05-05 13:04 | 21.85333 | 117.11447 | 37550 ft | 529 kts | 66° |
| 2026-05-05 13:04 | 21.86649 | 117.15097 | 37712 ft | 529 kts | 66° |
| 2026-05-05 13:04 | 21.87978 | 117.18787 | 37879 ft | 528 kts | 66° |
| 2026-05-05 13:05 | 21.89304 | 117.22473 | 38032 ft | 528 kts | 66° |
| 2026-05-05 13:05 | 21.90200 | 117.24967 | 38160 ft | 528 kts | 66° |
| 2026-05-05 13:05 | 21.91955 | 117.29852 | 38371 ft | 528 kts | 66° |
| 2026-05-05 13:05 | 21.93280 | 117.33542 | 38528 ft | 527 kts | 66° |
| 2026-05-05 13:06 | 21.94601 | 117.37225 | 38672 ft | 527 kts | 66° |
| 2026-05-05 13:06 | 21.95923 | 117.40914 | 38798 ft | 527 kts | 66° |
| 2026-05-05 13:06 | 21.97243 | 117.44602 | 38944 ft | 527 kts | 66° |
| 2026-05-05 13:06 | 21.98595 | 117.48268 | 38999 ft | 525 kts | 63° |
| 2026-05-05 13:07 | 22.02077 | 117.55132 | 39012 ft | 521 kts | 54° |
| 2026-05-05 13:07 | 22.05885 | 117.61786 | 39011 ft | 522 kts | 55° |
| 2026-05-05 13:08 | 22.09652 | 117.68432 | 39014 ft | 522 kts | 55° |
| 2026-05-05 13:08 | 22.13443 | 117.75128 | 39011 ft | 523 kts | 55° |
| 2026-05-05 13:09 | 22.17239 | 117.81835 | 39017 ft | 524 kts | 55° |
| 2026-05-05 13:09 | 22.21034 | 117.88550 | 39022 ft | 524 kts | 55° |
| 2026-05-05 13:10 | 22.24834 | 117.95280 | 39023 ft | 525 kts | 55° |
| 2026-05-05 13:10 | 22.28637 | 118.02016 | 39022 ft | 525 kts | 55° |
| 2026-05-05 13:11 | 22.32531 | 118.08686 | 39022 ft | 525 kts | 54° |
| 2026-05-05 13:11 | 22.36445 | 118.15360 | 39024 ft | 526 kts | 54° |
| 2026-05-05 13:12 | 22.40326 | 118.22015 | 39021 ft | 526 kts | 54° |
| 2026-05-05 13:12 | 22.44171 | 118.28765 | 39020 ft | 527 kts | 55° |
| 2026-05-05 13:13 | 22.47990 | 118.35541 | 39022 ft | 528 kts | 55° |
| 2026-05-05 13:13 | 22.51824 | 118.42330 | 39021 ft | 528 kts | 55° |
| 2026-05-05 13:14 | 22.55658 | 118.49118 | 39023 ft | 529 kts | 55° |
| 2026-05-05 13:14 | 22.59506 | 118.55911 | 39025 ft | 529 kts | 55° |
| 2026-05-05 13:15 | 22.63376 | 118.62690 | 39026 ft | 530 kts | 55° |
| 2026-05-05 13:15 | 22.67221 | 118.69440 | 39025 ft | 530 kts | 55° |
| 2026-05-05 13:16 | 22.71099 | 118.76264 | 39020 ft | 531 kts | 55° |
| 2026-05-05 13:16 | 22.74316 | 118.81933 | 39024 ft | 531 kts | 55° |
| 2026-05-05 13:17 | 22.76909 | 118.86507 | 39027 ft | 532 kts | 55° |
| 2026-05-05 13:17 | 22.79477 | 118.91040 | 39026 ft | 532 kts | 55° |
| 2026-05-05 13:18 | 22.86466 | 119.03399 | 39017 ft | 533 kts | 56° |
| 2026-05-05 13:18 | 22.90339 | 119.10261 | 39021 ft | 533 kts | 56° |
| 2026-05-05 13:19 | 22.94211 | 119.17132 | 39021 ft | 534 kts | 56° |
| 2026-05-05 13:19 | 22.98084 | 119.24012 | 39022 ft | 535 kts | 56° |
| 2026-05-05 13:20 | 23.01961 | 119.30909 | 39020 ft | 535 kts | 56° |
| 2026-05-05 13:20 | 23.05817 | 119.37777 | 39017 ft | 536 kts | 56° |
| 2026-05-05 13:21 | 23.09698 | 119.44699 | 39021 ft | 536 kts | 56° |
| 2026-05-05 13:21 | 23.13577 | 119.51627 | 39016 ft | 537 kts | 56° |
| 2026-05-05 13:22 | 23.18049 | 119.58034 | 39016 ft | 529 kts | 40° |
| 2026-05-05 13:22 | 23.23765 | 119.62917 | 39017 ft | 518 kts | 25° |
| 2026-05-05 13:23 | 23.29975 | 119.66782 | 39018 ft | 518 kts | 24° |
| 2026-05-05 13:23 | 23.36222 | 119.70718 | 39024 ft | 519 kts | 24° |
| 2026-05-05 13:24 | 23.42474 | 119.74666 | 39030 ft | 520 kts | 24° |
| 2026-05-05 13:24 | 23.48739 | 119.78624 | 39033 ft | 521 kts | 24° |
| 2026-05-05 13:25 | 23.54912 | 119.82825 | 39029 ft | 524 kts | 27° |
| 2026-05-05 13:25 | 23.61056 | 119.87123 | 39028 ft | 525 kts | 26° |
| 2026-05-05 13:26 | 23.67220 | 119.91391 | 39031 ft | 525 kts | 26° |
| 2026-05-05 13:26 | 23.73374 | 119.95641 | 38782 ft | 519 kts | 26° |
| 2026-05-05 13:27 | 23.76405 | 119.97737 | 38411 ft | 513 kts | 26° |
| 2026-05-05 13:27 | 23.79413 | 119.99816 | 37873 ft | 508 kts | 26° |
| 2026-05-05 13:27 | 23.82384 | 120.01869 | 37340 ft | 503 kts | 26° |
| 2026-05-05 13:27 | 23.85287 | 120.03876 | 36795 ft | 498 kts | 26° |
| 2026-05-05 13:28 | 23.88196 | 120.05888 | 36297 ft | 492 kts | 26° |
| 2026-05-05 13:28 | 23.91076 | 120.07882 | 35785 ft | 487 kts | 27° |
| 2026-05-05 13:28 | 23.93925 | 120.09856 | 35284 ft | 483 kts | 27° |
| 2026-05-05 13:28 | 23.96748 | 120.11812 | 34785 ft | 478 kts | 27° |
| 2026-05-05 13:29 | 23.99545 | 120.13753 | 34295 ft | 474 kts | 27° |
| 2026-05-05 13:29 | 24.02313 | 120.15673 | 33772 ft | 469 kts | 27° |
| 2026-05-05 13:30 | 24.16022 | 120.25204 | 30615 ft | 449 kts | 27° |
| 2026-05-05 13:30 | 24.18642 | 120.27028 | 30022 ft | 444 kts | 27° |
| 2026-05-05 13:31 | 24.21238 | 120.28837 | 29351 ft | 440 kts | 27° |
| 2026-05-05 13:31 | 24.23806 | 120.30627 | 28711 ft | 435 kts | 27° |
| 2026-05-05 13:31 | 24.26346 | 120.32398 | 28063 ft | 430 kts | 27° |
| 2026-05-05 13:31 | 24.28854 | 120.34147 | 27411 ft | 426 kts | 27° |
| 2026-05-05 13:32 | 24.31344 | 120.35884 | 26774 ft | 421 kts | 27° |
| 2026-05-05 13:32 | 24.33801 | 120.37599 | 26157 ft | 417 kts | 27° |
| 2026-05-05 13:32 | 24.36002 | 120.39136 | 25603 ft | 413 kts | 27° |
| 2026-05-05 13:32 | 24.38414 | 120.40821 | 24994 ft | 409 kts | 28° |
| 2026-05-05 13:33 | 24.40803 | 120.42490 | 24375 ft | 405 kts | 28° |
| 2026-05-05 13:33 | 24.43140 | 120.44124 | 23791 ft | 401 kts | 28° |
| 2026-05-05 13:33 | 24.45494 | 120.45770 | 23122 ft | 397 kts | 28° |
| 2026-05-05 13:33 | 24.47811 | 120.47391 | 22474 ft | 392 kts | 28° |
| 2026-05-05 13:34 | 24.50103 | 120.48995 | 21819 ft | 388 kts | 28° |
| 2026-05-05 13:34 | 24.52371 | 120.50582 | 21164 ft | 384 kts | 29° |
| 2026-05-05 13:34 | 24.54612 | 120.52152 | 20544 ft | 380 kts | 29° |
| 2026-05-05 13:34 | 24.56832 | 120.53708 | 19929 ft | 376 kts | 29° |
| 2026-05-05 13:35 | 24.59031 | 120.55250 | 19300 ft | 373 kts | 30° |
| 2026-05-05 13:35 | 24.61207 | 120.56776 | 18704 ft | 369 kts | 30° |
| 2026-05-05 13:35 | 24.63376 | 120.58296 | 17773 ft | 373 kts | 30° |
| 2026-05-05 13:35 | 24.65562 | 120.59831 | 16589 ft | 382 kts | 30° |
| 2026-05-05 13:36 | 24.67791 | 120.61491 | 15226 ft | 394 kts | 36° |
| 2026-05-05 13:36 | 24.69882 | 120.63503 | 13801 ft | 406 kts | 40° |
| 2026-05-05 13:36 | 24.71999 | 120.65608 | 12325 ft | 413 kts | 40° |
| 2026-05-05 13:36 | 24.74120 | 120.67710 | 11260 ft | 406 kts | 40° |
| 2026-05-05 13:37 | 24.76199 | 120.69766 | 10268 ft | 398 kts | 39° |
| 2026-05-05 13:37 | 24.78237 | 120.71774 | 9229 ft | 389 kts | 39° |
| 2026-05-05 13:37 | 24.80236 | 120.73740 | 8190 ft | 380 kts | 40° |
| 2026-05-05 13:37 | 24.82189 | 120.75658 | 7173 ft | 372 kts | 40° |
| 2026-05-05 13:38 | 24.84104 | 120.77540 | 6159 ft | 364 kts | 40° |
| 2026-05-05 13:38 | 24.85950 | 120.79356 | 5417 ft | 346 kts | 41° |
| 2026-05-05 13:38 | 24.87673 | 120.81059 | 5121 ft | 316 kts | 41° |
| 2026-05-05 13:38 | 24.88713 | 120.82104 | 5052 ft | 296 kts | 42° |
| 2026-05-05 13:39 | 24.90621 | 120.84033 | 5026 ft | 262 kts | 45° |
| 2026-05-05 13:39 | 24.91501 | 120.85640 | 5030 ft | 239 kts | 70° |
| 2026-05-05 13:39 | 24.91782 | 120.87376 | 5030 ft | 218 kts | 92° |
| 2026-05-05 13:39 | 24.91623 | 120.88961 | 4918 ft | 207 kts | 99° |
| 2026-05-05 13:40 | 24.91513 | 120.90531 | 4710 ft | 204 kts | 92° |
| 2026-05-05 13:40 | 24.91521 | 120.92076 | 4511 ft | 200 kts | 92° |
| 2026-05-05 13:40 | 24.91478 | 120.93591 | 4332 ft | 194 kts | 94° |
| 2026-05-05 13:40 | 24.91416 | 120.95068 | 4137 ft | 193 kts | 95° |
| 2026-05-05 13:41 | 24.91332 | 120.96536 | 4054 ft | 191 kts | 95° |
| 2026-05-05 13:41 | 24.91252 | 120.97992 | 4016 ft | 189 kts | 96° |
| 2026-05-05 13:41 | 24.91165 | 120.99425 | 3991 ft | 185 kts | 96° |
| 2026-05-05 13:41 | 24.91058 | 121.00826 | 3970 ft | 182 kts | 97° |
| 2026-05-05 13:42 | 24.91146 | 121.02216 | 3947 ft | 182 kts | 71° |
| 2026-05-05 13:42 | 24.91830 | 121.03370 | 4095 ft | 185 kts | 52° |
| 2026-05-05 13:42 | 24.92567 | 121.04567 | 3999 ft | 191 kts | 58° |
| 2026-05-05 13:42 | 24.93294 | 121.05803 | 3820 ft | 190 kts | 57° |
| 2026-05-05 13:43 | 24.94028 | 121.06977 | 3664 ft | 183 kts | 54° |
| 2026-05-05 13:43 | 24.94843 | 121.08038 | 3479 ft | 179 kts | 49° |
| 2026-05-05 13:43 | 24.95640 | 121.09082 | 3264 ft | 177 kts | 50° |
| 2026-05-05 13:43 | 24.96448 | 121.10085 | 3058 ft | 173 kts | 48° |
| 2026-05-05 13:44 | 24.97255 | 121.11059 | 2865 ft | 171 kts | 50° |
| 2026-05-05 13:44 | 24.97994 | 121.12089 | 2638 ft | 170 kts | 52° |
| 2026-05-05 13:44 | 24.98753 | 121.13077 | 2388 ft | 168 kts | 50° |
| 2026-05-05 13:44 | 24.99550 | 121.14007 | 2149 ft | 165 kts | 47° |
| 2026-05-05 13:45 | 25.00336 | 121.14911 | 1910 ft | 162 kts | 48° |
| 2026-05-05 13:45 | 25.01098 | 121.15810 | 1678 ft | 157 kts | 49° |
| 2026-05-05 13:45 | 25.01734 | 121.16743 | 1441 ft | 155 kts | 59° |
| 2026-05-05 13:45 | 25.02400 | 121.17704 | 1237 ft | 160 kts | 47° |
| 2026-05-05 13:46 | 25.03150 | 121.18598 | 1030 ft | 158 kts | 51° |
| 2026-05-05 13:46 | 25.03869 | 121.19527 | 824 ft | 160 kts | 51° |
| 2026-05-05 13:46 | 25.04596 | 121.20461 | 603 ft | 161 kts | 52° |
| 2026-05-05 13:47 | 25.07175 | 121.23743 | 100 ft | 94 kts | 49° |
| 2026-05-05 13:47 | 25.07477 | 121.24111 | 99 ft | 37 kts | 40° |
| 2026-05-05 13:48 | 25.07631 | 121.24204 | 103 ft | 23 kts | 20° |
| 2026-05-05 13:48 | 25.07757 | 121.24252 | 105 ft | 15 kts | 19° |
| 2026-05-05 13:48 | 25.07847 | 121.24281 | 105 ft | 10 kts | 5° |
| 2026-05-05 13:48 | 25.07906 | 121.24248 | 106 ft | 10 kts | 321° |
| 2026-05-05 13:49 | 25.07944 | 121.24213 | 106 ft | 0 kts | 319° |
| 2026-05-05 13:49 | 25.07950 | 121.24208 | 106 ft | 2 kts | 319° |
| 2026-05-05 13:49 | 25.07972 | 121.24182 | 106 ft | 7 kts | 310° |
| 2026-05-05 13:50 | 25.07978 | 121.24125 | 107 ft | 8 kts | 259° |
| 2026-05-05 13:50 | 25.07944 | 121.24075 | 107 ft | 9 kts | 229° |
| 2026-05-05 13:50 | 25.07901 | 121.24019 | 105 ft | 10 kts | 229° |
| 2026-05-05 13:50 | 25.07853 | 121.23957 | 107 ft | 11 kts | 229° |
| 2026-05-05 13:51 | 25.07801 | 121.23890 | 107 ft | 12 kts | 229° |
| 2026-05-05 13:51 | 25.07744 | 121.23818 | 106 ft | 13 kts | 229° |
| 2026-05-05 13:51 | 25.07714 | 121.23754 | 106 ft | 8 kts | 269° |
| 2026-05-05 13:51 | 25.07745 | 121.23708 | 107 ft | 8 kts | 316° |
| 2026-05-05 13:52 | 25.07779 | 121.23674 | 107 ft | 6 kts | 319° |
| 2026-05-05 13:52 | 25.07788 | 121.23666 | 107 ft | 0 kts | 319° |